createdAt,value
2022-08-25T00:01:32.375Z,2.07
2022-08-25T00:04:09.245Z,2.20
2022-08-25T00:06:40.547Z,2.20
2022-08-25T00:09:09.632Z,2.47
2022-08-25T00:11:42.238Z,2.23
2022-08-25T00:14:16.138Z,2.27
2022-08-25T00:16:45.807Z,2.10
2022-08-25T00:19:21.557Z,2.40
2022-08-25T00:21:54.269Z,2.00
2022-08-25T00:24:23.352Z,2.20
2022-08-25T00:26:57.773Z,2.73
2022-08-25T00:29:27.376Z,2.40
2022-08-25T00:31:55.773Z,2.17
2022-08-25T00:34:27.489Z,2.43
2022-08-25T00:37:01.783Z,2.10
2022-08-25T00:39:31.516Z,2.07
2022-08-25T00:42:03.963Z,2.40
2022-08-25T00:44:38.089Z,2.60
2022-08-25T00:47:07.866Z,2.33
2022-08-25T00:49:59.385Z,2.10
2022-08-25T00:52:32.588Z,2.40
2022-08-25T00:55:18.669Z,2.17
2022-08-25T00:58:00.063Z,2.40
2022-08-25T01:00:39.613Z,2.27
2022-08-25T01:03:09.467Z,2.30
2022-08-25T01:05:40.702Z,2.40
2022-08-25T01:08:10.545Z,2.43
2022-08-25T01:10:44.024Z,2.23
2022-08-25T01:13:20.857Z,2.50
2022-08-25T01:15:54.228Z,2.60
2022-08-25T01:18:30.515Z,2.60
2022-08-25T01:21:04.527Z,2.20
2022-08-25T01:23:35.928Z,2.47
2022-08-25T01:26:19.904Z,2.40
2022-08-25T01:29:18.094Z,2.63
2022-08-25T01:32:15.867Z,2.43
2022-08-25T01:34:49.694Z,2.50
2022-08-25T01:37:26.717Z,2.30
2022-08-25T01:40:00.941Z,2.53
2022-08-25T01:42:42.638Z,2.40
2022-08-25T01:45:13.886Z,2.93
2022-08-25T01:47:46.057Z,2.93
2022-08-25T01:50:19.286Z,2.63
2022-08-25T01:53:06.739Z,2.67
2022-08-25T01:55:54.371Z,2.87
2022-08-25T01:58:27.980Z,2.80
2022-08-25T02:01:00.104Z,2.93
2022-08-25T02:03:34.646Z,2.67
2022-08-25T02:06:07.082Z,2.50
2022-08-25T02:08:40.612Z,2.97
2022-08-25T02:11:14.134Z,2.87
2022-08-25T02:13:48.284Z,2.73
2022-08-25T02:16:29.112Z,3.03
2022-08-25T02:19:01.933Z,3.17
2022-08-25T02:21:37.477Z,2.90
2022-08-25T02:24:05.323Z,2.53
2022-08-25T02:26:39.393Z,2.87
2022-08-25T02:29:11.561Z,3.20
2022-08-25T02:31:42.690Z,3.10
2022-08-25T02:34:11.349Z,3.10
2022-08-25T02:36:43.115Z,2.77
2022-08-25T02:39:16.450Z,2.50
2022-08-25T02:41:45.976Z,3.30
2022-08-25T02:44:14.746Z,3.53
2022-08-25T02:46:44.166Z,3.33
2022-08-25T02:49:14.091Z,3.30
2022-08-25T02:51:46.523Z,3.00
2022-08-25T02:54:18.384Z,3.13
2022-08-25T02:56:49.840Z,2.97
2022-08-25T02:59:22.183Z,3.27
2022-08-25T03:01:53.851Z,3.00
2022-08-25T03:04:22.197Z,3.43
2022-08-25T03:06:54.478Z,3.40
2022-08-25T03:09:24.370Z,3.07
2022-08-25T03:11:55.459Z,3.10
2022-08-25T03:14:26.273Z,3.47
2022-08-25T03:19:44.359Z,2.73
2022-08-25T03:22:16.763Z,3.00
2022-08-25T03:24:51.519Z,3.33
2022-08-25T03:27:23.891Z,3.27
2022-08-25T03:29:53.823Z,3.10
2022-08-25T03:32:27.015Z,2.70
2022-08-25T03:34:58.724Z,3.00
2022-08-25T03:37:30.535Z,3.43
2022-08-25T03:39:59.054Z,3.30
2022-08-25T03:42:28.703Z,2.67
2022-08-25T03:44:57.423Z,3.73
2022-08-25T03:47:29.435Z,2.90
2022-08-25T03:49:58.875Z,2.90
2022-08-25T03:52:30.879Z,3.10
2022-08-25T03:55:00.771Z,3.30
2022-08-25T03:57:29.299Z,3.07
2022-08-25T03:59:59.344Z,3.30
2022-08-25T04:02:34.070Z,2.97
2022-08-25T04:05:06.128Z,2.90
2022-08-25T04:07:37.559Z,3.20
2022-08-25T04:10:12.759Z,2.80
2022-08-25T04:12:42.036Z,3.23
2022-08-25T04:17:52.938Z,2.93
2022-08-25T04:20:24.700Z,3.20
2022-08-25T04:22:54.027Z,3.00
2022-08-25T04:25:23.750Z,2.60
2022-08-25T04:27:55.808Z,3.20
2022-08-25T04:33:09.854Z,2.90
2022-08-25T04:36:12.038Z,3.37
2022-08-25T04:38:48.598Z,3.10
2022-08-25T04:41:21.095Z,2.73
2022-08-25T04:43:53.620Z,3.30
2022-08-25T04:49:08.351Z,3.23
2022-08-25T04:51:43.994Z,3.57
2022-08-25T04:54:20.032Z,3.73
2022-08-25T04:56:54.330Z,2.90
2022-08-25T04:59:30.172Z,3.17
2022-08-25T05:02:06.863Z,3.10
2022-08-25T05:04:39.587Z,2.93
2022-08-25T05:07:12.007Z,3.00
2022-08-25T05:09:43.805Z,2.97
2022-08-25T05:12:13.614Z,3.30
2022-08-25T05:14:42.048Z,3.53
2022-08-25T05:17:15.441Z,3.37
2022-08-25T05:19:46.161Z,3.20
2022-08-25T05:22:18.461Z,3.40
2022-08-25T05:24:50.335Z,3.20
2022-08-25T05:27:20.371Z,3.47
2022-08-25T05:29:53.053Z,3.37
2022-08-25T05:32:21.570Z,3.60
2022-08-25T05:34:53.226Z,4.00
2022-08-25T05:37:26.015Z,3.53
2022-08-25T05:39:57.921Z,3.63
2022-08-25T05:42:28.320Z,3.57
2022-08-25T05:45:03.788Z,3.50
2022-08-25T05:47:34.817Z,3.63
2022-08-25T05:50:03.593Z,3.37
2022-08-25T05:52:33.126Z,3.40
2022-08-25T05:55:06.720Z,3.77
2022-08-25T05:57:40.716Z,3.20
2022-08-25T06:00:16.359Z,3.20
2022-08-25T06:02:49.336Z,3.33
2022-08-25T06:05:19.804Z,3.00
2022-08-25T06:07:49.970Z,2.87
2022-08-25T06:10:20.194Z,3.30
2022-08-25T06:12:51.818Z,2.77
2022-08-25T06:15:24.594Z,3.10
2022-08-25T06:18:01.744Z,3.67
2022-08-25T06:20:35.562Z,3.67
2022-08-25T06:23:06.029Z,3.00
2022-08-25T06:25:37.843Z,2.83
2022-08-25T06:28:09.908Z,3.20
2022-08-25T06:30:38.273Z,3.00
2022-08-25T06:33:06.799Z,2.90
2022-08-25T06:35:37.088Z,3.50
2022-08-25T06:38:08.670Z,3.10
2022-08-25T06:40:40.710Z,3.10
2022-08-25T06:43:13.622Z,3.00
2022-08-25T06:45:46.469Z,3.17
2022-08-25T06:48:19.626Z,3.10
2022-08-25T06:50:51.662Z,3.00
2022-08-25T06:53:22.082Z,3.23
2022-08-25T06:58:41.554Z,3.20
2022-08-25T07:01:20.531Z,3.10
2022-08-25T07:03:57.240Z,3.10
2022-08-25T07:06:33.719Z,2.50
2022-08-25T07:09:02.319Z,3.00
2022-08-25T07:11:32.336Z,3.03
2022-08-25T07:14:04.200Z,2.80
2022-08-25T07:16:35.321Z,2.90
2022-08-25T07:19:05.753Z,2.77
2022-08-25T07:21:41.415Z,3.03
2022-08-25T07:24:18.228Z,2.57
2022-08-25T07:26:48.404Z,2.80
2022-08-25T07:29:32.407Z,2.50
2022-08-25T07:32:18.732Z,2.53
2022-08-25T07:35:10.674Z,2.83
2022-08-25T07:37:49.297Z,2.70
2022-08-25T07:43:15.540Z,2.87
2022-08-25T07:45:49.522Z,2.80
2022-08-25T07:48:31.061Z,2.93
2022-08-25T07:51:05.485Z,2.90
2022-08-25T07:53:39.184Z,2.93
2022-08-25T07:56:19.485Z,2.77
2022-08-25T07:58:48.740Z,2.50
2022-08-25T08:01:31.687Z,3.20
2022-08-25T08:04:04.572Z,2.70
2022-08-25T08:06:47.132Z,2.80
2022-08-25T08:09:21.205Z,2.77
2022-08-25T08:11:55.066Z,3.20
2022-08-25T08:14:23.759Z,2.70
2022-08-25T08:17:00.156Z,3.40
2022-08-25T08:19:31.794Z,3.03
2022-08-25T08:22:03.139Z,3.47
2022-08-25T08:24:44.675Z,3.53
2022-08-25T08:27:29.676Z,3.10
2022-08-25T08:30:00.428Z,3.37
2022-08-25T08:32:36.695Z,3.30
2022-08-25T08:35:23.097Z,3.07
2022-08-25T08:37:55.371Z,3.20
2022-08-25T08:40:38.074Z,3.20
2022-08-25T08:43:18.501Z,3.00
2022-08-25T08:45:53.907Z,3.07
2022-08-25T08:48:45.699Z,2.93
2022-08-25T08:51:23.468Z,3.00
2022-08-25T08:53:59.439Z,3.00
2022-08-25T08:56:35.459Z,2.97
2022-08-25T08:59:19.775Z,3.37
2022-08-25T09:02:03.547Z,3.27
2022-08-25T09:05:01.378Z,2.97
2022-08-25T09:07:32.374Z,3.50
2022-08-25T09:10:00.897Z,3.30
2022-08-25T09:16:03.926Z,3.37
2022-08-25T09:18:54.083Z,3.30
2022-08-25T09:22:00.910Z,3.70
2022-08-25T09:24:39.438Z,3.03
2022-08-25T09:27:22.608Z,3.47
2022-08-25T09:30:06.031Z,3.60
2022-08-25T09:32:49.036Z,3.40
2022-08-25T09:35:28.670Z,3.00
2022-08-25T09:38:01.073Z,3.10
2022-08-25T09:40:45.860Z,3.50
2022-08-25T09:43:48.096Z,3.37
2022-08-25T09:46:31.384Z,3.17
2022-08-25T09:49:03.655Z,3.20
2022-08-25T09:54:25.428Z,3.30
2022-08-25T09:57:10.339Z,3.37
2022-08-25T09:59:38.103Z,3.30
2022-08-25T10:02:33.176Z,3.10
2022-08-25T10:05:23.205Z,3.87
2022-08-25T10:07:58.309Z,3.37
2022-08-25T10:10:33.303Z,3.50
2022-08-25T10:13:07.392Z,3.60
2022-08-25T10:15:41.955Z,3.87
2022-08-25T10:18:25.644Z,3.77
2022-08-25T10:21:17.307Z,3.43
2022-08-25T10:23:58.392Z,3.37
2022-08-25T10:26:35.430Z,3.77
2022-08-25T10:29:22.219Z,3.63
2022-08-25T10:32:12.317Z,3.57
2022-08-25T10:34:44.898Z,3.23
2022-08-25T10:37:32.904Z,3.80
2022-08-25T10:40:20.810Z,3.60
2022-08-25T10:42:52.157Z,3.60
2022-08-25T10:45:46.537Z,3.07
2022-08-25T10:48:34.164Z,3.37
2022-08-25T10:51:30.439Z,4.03
2022-08-25T10:54:10.903Z,3.30
2022-08-25T10:56:45.915Z,3.00
2022-08-25T10:59:36.640Z,3.63
2022-08-25T11:02:15.031Z,2.80
2022-08-25T11:04:51.999Z,3.10
2022-08-25T11:07:41.210Z,2.70
2022-08-25T11:10:15.810Z,3.00
2022-08-25T11:12:47.863Z,2.90
2022-08-25T11:15:25.366Z,2.90
2022-08-25T11:18:03.662Z,2.93
2022-08-25T11:20:41.942Z,3.00
2022-08-25T11:23:26.850Z,2.80
2022-08-25T11:29:05.799Z,3.10
2022-08-25T11:31:47.345Z,3.20
2022-08-25T11:34:21.118Z,2.80
2022-08-25T11:37:14.088Z,2.77
2022-08-25T11:40:01.299Z,2.53
2022-08-25T11:42:48.474Z,2.80
2022-08-25T11:45:28.709Z,3.00
2022-08-25T11:48:14.751Z,2.63
2022-08-25T11:50:56.278Z,2.67
2022-08-25T11:53:30.302Z,2.60
2022-08-25T11:56:15.416Z,2.77
2022-08-25T11:58:59.565Z,2.77
2022-08-25T12:01:45.454Z,2.73
2022-08-25T12:04:44.134Z,2.87
2022-08-25T12:07:23.758Z,2.70
2022-08-25T12:09:57.686Z,2.37
2022-08-25T12:12:40.329Z,2.80
2022-08-25T12:15:32.845Z,2.87
2022-08-25T12:18:18.879Z,2.83
2022-08-25T12:21:02.379Z,2.97
2022-08-25T12:23:44.980Z,2.70
2022-08-25T12:26:23.143Z,2.83
2022-08-25T12:29:11.395Z,3.10
2022-08-25T12:31:51.929Z,2.73
2022-08-25T12:34:20.230Z,3.00
2022-08-25T12:37:06.418Z,2.67
2022-08-25T12:39:38.358Z,2.60
2022-08-25T12:42:12.142Z,2.83
2022-08-25T12:44:43.932Z,2.90
2022-08-25T12:50:29.021Z,3.40
2022-08-25T12:53:05.377Z,2.73
2022-08-25T12:55:38.147Z,2.50
2022-08-25T12:58:10.513Z,3.23
2022-08-25T13:01:07.214Z,2.90
2022-08-25T13:06:25.463Z,2.90
2022-08-25T13:09:15.030Z,3.00
2022-08-25T13:11:56.928Z,2.90
2022-08-25T13:14:49.674Z,2.70
2022-08-25T13:17:37.461Z,2.93
2022-08-25T13:20:24.117Z,2.93
2022-08-25T13:22:57.803Z,2.90
2022-08-25T13:25:32.741Z,2.90
2022-08-25T13:28:11.245Z,2.80
2022-08-25T13:30:42.958Z,3.13
2022-08-25T13:33:21.839Z,3.10
2022-08-25T13:36:15.890Z,3.13
2022-08-25T13:38:47.777Z,3.00
2022-08-25T13:41:29.525Z,3.10
2022-08-25T13:44:01.817Z,3.00
2022-08-25T13:46:35.452Z,2.83
2022-08-25T13:49:09.643Z,2.87
2022-08-25T13:51:44.430Z,3.00
2022-08-25T13:54:27.921Z,3.30
2022-08-25T13:57:08.412Z,2.97
2022-08-25T13:59:40.028Z,2.87
2022-08-25T14:02:19.236Z,2.60
2022-08-25T14:04:51.464Z,2.70
2022-08-25T14:07:33.849Z,2.60
2022-08-25T14:10:10.848Z,2.70
2022-08-25T14:12:42.213Z,2.70
2022-08-25T14:15:23.881Z,2.70
2022-08-25T14:18:05.487Z,2.77
2022-08-25T14:20:37.655Z,2.70
2022-08-25T14:23:16.197Z,2.70
2022-08-25T14:25:49.116Z,2.70
2022-08-25T14:28:22.922Z,2.83
2022-08-25T14:31:05.317Z,2.80
2022-08-25T14:33:42.761Z,2.80
2022-08-25T14:36:13.295Z,2.70
2022-08-25T14:38:54.601Z,2.60
2022-08-25T14:41:28.713Z,3.10
2022-08-25T14:43:58.835Z,3.00
2022-08-25T14:46:29.626Z,2.90
2022-08-25T14:49:04.804Z,2.50
2022-08-25T14:51:43.393Z,2.43
2022-08-25T14:54:17.234Z,2.73
2022-08-25T14:56:48.412Z,2.70
2022-08-25T14:59:19.391Z,2.70
2022-08-25T15:01:53.301Z,2.50
2022-08-25T15:04:31.871Z,2.20
2022-08-25T15:07:02.883Z,2.63
2022-08-25T15:12:37.336Z,2.90
2022-08-25T15:15:12.871Z,2.73
2022-08-25T15:17:45.284Z,2.43
2022-08-25T15:20:17.564Z,2.30
2022-08-25T15:22:53.683Z,2.37
2022-08-25T15:25:29.640Z,2.40
2022-08-25T15:28:02.512Z,2.17
2022-08-25T15:30:31.877Z,2.60
2022-08-25T15:33:02.458Z,2.47
2022-08-25T15:35:34.588Z,2.43
2022-08-25T15:38:08.743Z,2.57
2022-08-25T15:40:42.153Z,2.23
2022-08-25T15:43:10.340Z,2.10
2022-08-25T15:45:41.146Z,2.23
2022-08-25T15:48:16.291Z,2.63
2022-08-25T15:50:45.771Z,2.43
2022-08-25T15:53:16.283Z,2.50
2022-08-25T15:55:46.446Z,2.50
2022-08-25T15:58:17.977Z,2.77
2022-08-25T16:00:56.300Z,2.37
2022-08-25T16:03:27.893Z,2.67
2022-08-25T16:05:56.534Z,3.23
2022-08-25T16:08:28.839Z,2.90
2022-08-25T16:11:02.177Z,2.47
2022-08-25T16:13:35.149Z,2.40
2022-08-25T16:16:08.393Z,2.20
2022-08-25T16:18:41.344Z,2.10
2022-08-25T16:21:17.226Z,2.60
2022-08-25T16:23:47.278Z,2.50
2022-08-25T16:26:18.945Z,2.83
2022-08-25T16:28:49.756Z,2.47
2022-08-25T16:31:22.536Z,2.43
2022-08-25T16:33:57.650Z,2.33
2022-08-25T16:36:28.216Z,2.43
2022-08-25T16:39:04.615Z,2.73
2022-08-25T16:41:41.935Z,2.77
2022-08-25T16:44:11.281Z,2.20
2022-08-25T16:46:54.770Z,2.37
2022-08-25T16:49:26.084Z,2.40
2022-08-25T16:51:58.575Z,2.67
2022-08-25T16:54:45.164Z,2.50
2022-08-25T16:57:18.562Z,2.87
2022-08-25T16:59:45.729Z,2.70
2022-08-25T17:02:18.700Z,2.30
2022-08-25T17:04:51.816Z,2.37
2022-08-25T17:07:33.047Z,2.63
2022-08-25T17:10:01.036Z,2.40
2022-08-25T17:12:40.627Z,2.57
2022-08-25T17:15:10.506Z,2.53
2022-08-25T17:17:38.802Z,3.10
2022-08-25T17:20:08.652Z,2.90
2022-08-25T17:22:41.161Z,2.70
2022-08-25T17:25:09.005Z,3.23
2022-08-25T17:27:37.244Z,2.70
2022-08-25T17:30:11.702Z,2.67
2022-08-25T17:32:47.469Z,2.70
2022-08-25T17:35:23.475Z,2.50
2022-08-25T17:37:53.251Z,2.73
2022-08-25T17:40:23.033Z,2.63
2022-08-25T17:42:56.510Z,2.40
2022-08-25T17:45:24.683Z,2.70
2022-08-25T17:47:53.947Z,2.57
2022-08-25T17:50:24.635Z,2.50
2022-08-25T17:52:58.574Z,2.50
2022-08-25T17:55:28.886Z,2.67
2022-08-25T17:57:59.065Z,2.70
2022-08-25T18:00:32.527Z,2.83
2022-08-25T18:03:02.559Z,2.90
2022-08-25T18:05:33.801Z,2.80
2022-08-25T18:08:03.529Z,2.70
2022-08-25T18:13:23.663Z,3.27
2022-08-25T18:15:56.097Z,2.90
2022-08-25T18:18:25.810Z,3.43
2022-08-25T18:20:58.066Z,2.90
2022-08-25T18:23:31.009Z,3.03
2022-08-25T18:26:06.750Z,2.90
2022-08-25T18:28:43.830Z,3.40
2022-08-25T18:31:14.270Z,3.00
2022-08-25T18:33:51.099Z,3.33
2022-08-25T18:36:27.030Z,3.40
2022-08-25T18:39:15.046Z,2.80
2022-08-25T18:41:48.269Z,3.07
2022-08-25T18:44:20.737Z,3.50
2022-08-25T18:46:50.935Z,3.10
2022-08-25T18:49:26.738Z,2.73
2022-08-25T18:52:01.157Z,3.33
2022-08-25T18:54:33.254Z,2.87
2022-08-25T18:57:09.012Z,2.77
2022-08-25T18:59:38.147Z,3.33
2022-08-25T19:02:15.864Z,2.97
2022-08-25T19:04:45.276Z,2.60
2022-08-25T19:07:22.214Z,2.80
2022-08-25T19:09:53.618Z,3.07
2022-08-25T19:12:22.249Z,3.10
2022-08-25T19:14:52.806Z,3.17
2022-08-25T19:17:24.843Z,2.90
2022-08-25T19:19:54.440Z,3.20
2022-08-25T19:22:40.822Z,3.27
2022-08-25T19:28:03.327Z,3.27
2022-08-25T19:30:37.305Z,3.50
2022-08-25T19:33:11.548Z,3.63
2022-08-25T19:35:49.281Z,3.13
2022-08-25T19:38:33.988Z,3.27
2022-08-25T19:41:14.500Z,3.40
2022-08-25T19:44:08.210Z,3.83
2022-08-25T19:46:38.084Z,3.43
2022-08-25T19:49:11.862Z,3.80
2022-08-25T19:51:41.108Z,3.97
2022-08-25T19:54:15.740Z,4.67
2022-08-25T19:56:54.529Z,4.30
2022-08-25T19:59:42.280Z,3.90
2022-08-25T20:02:28.338Z,4.20
2022-08-25T20:05:02.355Z,3.90
2022-08-25T20:07:33.083Z,5.20
2022-08-25T20:12:47.054Z,5.07
2022-08-25T20:15:18.825Z,5.17
2022-08-25T20:17:47.296Z,5.40
2022-08-25T20:20:19.787Z,5.77
2022-08-25T20:22:50.572Z,6.53
2022-08-25T20:25:36.772Z,7.50
2022-08-25T20:28:07.607Z,8.20
2022-08-25T20:30:45.174Z,8.73
2022-08-25T20:33:22.607Z,9.30
2022-08-25T20:35:55.212Z,9.60
2022-08-25T20:38:26.888Z,9.33
2022-08-25T20:41:00.560Z,10.00
2022-08-25T20:43:32.661Z,10.53
2022-08-25T20:46:08.008Z,10.53
2022-08-25T20:48:40.595Z,11.10
2022-08-25T20:51:13.697Z,11.27
2022-08-25T20:53:46.239Z,12.00
2022-08-25T20:56:21.099Z,12.77
2022-08-25T20:58:52.148Z,15.47
2022-08-25T21:01:24.980Z,17.10
2022-08-25T21:03:53.891Z,18.30
2022-08-25T21:06:23.857Z,17.43
2022-08-25T21:09:00.506Z,15.20
2022-08-25T21:11:32.774Z,18.00
2022-08-25T21:14:02.807Z,17.33
2022-08-25T21:19:30.129Z,19.57
2022-08-25T21:22:03.465Z,18.80
2022-08-25T21:24:36.796Z,21.33
2022-08-25T21:27:08.521Z,20.30
2022-08-25T21:29:44.550Z,20.43
2022-08-25T21:32:23.218Z,18.93
2022-08-25T21:35:14.583Z,21.17
2022-08-25T21:37:45.491Z,19.33
2022-08-25T21:40:16.094Z,21.70
2022-08-25T21:42:46.976Z,21.10
2022-08-25T21:45:20.943Z,21.23
2022-08-25T21:47:53.330Z,22.73
2022-08-25T21:50:24.064Z,21.93
2022-08-25T21:52:54.450Z,22.70
2022-08-25T21:55:26.848Z,22.77
2022-08-25T21:58:00.279Z,21.87
2022-08-25T22:00:41.787Z,24.30
2022-08-25T22:03:10.285Z,21.10
2022-08-25T22:05:41.597Z,22.40
2022-08-25T22:08:21.562Z,21.97
2022-08-25T22:11:05.445Z,22.50
2022-08-25T22:13:43.239Z,18.93
2022-08-25T22:16:12.544Z,21.63
2022-08-25T22:18:42.195Z,20.13
2022-08-25T22:21:15.038Z,19.00
2022-08-25T22:23:46.866Z,20.57
2022-08-25T22:26:22.232Z,18.93
2022-08-25T22:28:52.456Z,16.67
2022-08-25T22:31:25.019Z,19.40
2022-08-25T22:33:57.639Z,19.50
2022-08-25T22:36:28.827Z,19.60
2022-08-25T22:39:00.749Z,18.20
2022-08-25T22:41:31.928Z,16.47
2022-08-25T22:44:07.163Z,16.33
2022-08-25T22:46:38.599Z,14.67
2022-08-25T22:49:11.795Z,14.57
2022-08-25T22:51:41.789Z,15.80
2022-08-25T22:54:09.777Z,13.77
2022-08-25T22:56:44.702Z,13.43
2022-08-25T22:59:18.162Z,14.33
2022-08-25T23:01:46.377Z,13.83
2022-08-25T23:04:19.140Z,12.70
2022-08-25T23:06:49.925Z,14.97
2022-08-25T23:09:23.247Z,15.10
2022-08-25T23:11:58.118Z,14.50
2022-08-25T23:14:26.638Z,14.23
2022-08-25T23:16:59.838Z,14.63
2022-08-25T23:19:29.433Z,13.80
2022-08-25T23:22:16.426Z,14.33
2022-08-25T23:24:55.059Z,12.80
2022-08-25T23:27:24.862Z,13.10
2022-08-25T23:29:55.384Z,13.77
2022-08-25T23:32:31.943Z,12.63
2022-08-25T23:35:02.409Z,11.27
2022-08-25T23:40:21.379Z,13.20
2022-08-25T23:42:54.314Z,10.73
2022-08-25T23:45:25.171Z,11.20
2022-08-25T23:47:59.322Z,11.73
2022-08-25T23:50:30.689Z,10.87
2022-08-25T23:53:00.139Z,12.00
2022-08-25T23:55:34.036Z,10.67
2022-08-25T23:58:06.426Z,10.70
